Gasconade, Missouri
Current Conditions -  °F | °C
As of 3:55 PM on Thursday 27 Nov 2014 (Local Time) from KFYG Reporting Station
Few Clouds Few Clouds  
Wind Chill: 32°   Ceiling: Unl
Heat Index: 37°   Visibility: 10mi
Dew Point: 23°   Wind: 7mph
Humidity: 56%   Direction: 320°NW
Pressure: 30.44"   Gusts: NA
Location:  38.67°N, 91.56°W
Report Text: KFYG 272155Z AUTO 32006KT 10SM FEW040 03/M05 A3044 RMK AO2
Loading
Personal Weather Stations






























Interactive Weather Map New forecast layout! Learn more

10-Day Weather Forecast

Advertisements
Track Severe Weather on mobile